Time;durP1;ratioP1;P1;durP2;ratioP2;P2;SDS_P1;SDS_P2;PMS_P1;PMS_P2;Temp;Humidity;BMP_temperature;BMP_pressure;BME280_temperature;BME280_humidity;BME280_pressure;Samples;Min_cycle;Max_cycle;Signal;HPM_P1;HPM_P2
2023/12/30 00:01:00;;;;;;;6.70;4.60;;;;;;;8.19;62.23;96870.45;107747;1239;99791;-74
2023/12/30 00:03:51;;;;;;;6.80;4.10;;;;;;;8.18;62.29;96866.14;107637;1244;96552;-81
2023/12/30 00:06:18;;;;;;;6.50;4.50;;;;;;;8.17;62.25;96867.17;107421;1243;96990;-79
2023/12/30 00:09:05;;;;;;;5.50;3.60;;;;;;;8.17;62.18;96865.35;107825;1248;96591;-80
2023/12/30 00:11:52;;;;;;;6.70;3.70;;;;;;;8.18;62.16;96862.26;107789;1241;100308;-74
2023/12/30 00:14:38;;;;;;;7.00;4.30;;;;;;;8.20;62.11;96859.58;107745;1248;99821;-75
2023/12/30 00:17:41;;;;;;;5.80;4.10;;;;;;;8.22;61.97;96861.83;107754;1244;96538;-87
2023/12/30 00:20:28;;;;;;;5.10;3.70;;;;;;;8.22;62.00;96861.65;107737;1240;97975;-86
2023/12/30 00:23:15;;;;;;;4.90;3.60;;;;;;;8.22;61.87;96857.27;107298;1245;109838;-87
2023/12/30 00:26:18;;;;;;;5.30;3.60;;;;;;;8.20;61.90;96855.30;107801;1248;101332;-86
2023/12/30 00:28:48;;;;;;;5.10;3.80;;;;;;;8.14;61.81;96857.74;107695;1240;99852;-74
2023/12/30 00:31:51;;;;;;;4.40;3.40;;;;;;;8.11;61.82;96856.55;107768;1248;97473;-78
2023/12/30 00:34:38;;;;;;;6.40;3.50;;;;;;;8.13;61.91;96857.12;107807;1236;97503;-77
2023/12/30 00:37:18;;;;;;;5.10;3.70;;;;;;;8.11;61.83;96853.27;107816;1239;102257;-78
2023/12/30 00:39:47;;;;;;;6.70;3.60;;;;;;;8.08;61.78;96852.97;107777;1246;101256;-78
2023/12/30 00:42:14;;;;;;;6.60;4.00;;;;;;;8.05;61.75;96850.86;107738;1238;99450;-82
2023/12/30 00:45:10;;;;;;;5.20;3.50;;;;;;;8.00;61.81;96846.71;107756;1245;97163;-78
2023/12/30 00:48:04;;;;;;;6.10;4.10;;;;;;;7.96;61.88;96849.20;107499;1246;97984;-80
2023/12/30 00:50:51;;;;;;;6.30;4.10;;;;;;;7.96;61.93;96852.86;107623;1247;102274;-80
2023/12/30 00:53:35;;;;;;;6.20;3.20;;;;;;;7.94;61.94;96859.23;107756;1239;100180;-79
2023/12/30 00:56:10;;;;;;;5.10;3.40;;;;;;;7.90;62.08;96858.52;107738;1238;99835;-80
2023/12/30 00:59:17;;;;;;;4.60;3.50;;;;;;;7.88;62.23;96854.50;107805;1246;96542;-80
2023/12/30 01:02:14;;;;;;;8.70;3.80;;;;;;;7.86;62.42;96855.95;107761;1239;97007;-74
2023/12/30 01:04:43;;;;;;;5.70;3.50;;;;;;;7.86;62.57;96851.90;107814;1239;102108;-74
2023/12/30 01:07:44;;;;;;;6.10;3.90;;;;;;;7.87;62.42;96847.80;107808;1246;101124;-74
2023/12/30 01:10:32;;;;;;;5.00;3.40;;;;;;;7.89;62.37;96849.59;107800;1237;98707;-74
2023/12/30 01:12:58;;;;;;;5.20;4.10;;;;;;;7.90;62.49;96844.21;107788;1242;97249;-73
2023/12/30 01:15:40;;;;;;;4.10;3.20;;;;;;;7.91;62.58;96850.26;107743;1246;96925;-76
2023/12/30 01:18:27;;;;;;;3.60;3.30;;;;;;;7.93;62.55;96845.96;107748;1246;101087;-80
2023/12/30 01:21:03;;;;;;;5.20;3.70;;;;;;;7.91;62.47;96843.31;107816;1246;101224;-80
2023/12/30 01:23:55;;;;;;;4.90;3.40;;;;;;;7.90;62.42;96837.73;107791;1247;99984;-80
2023/12/30 01:26:41;;;;;;;4.00;3.40;;;;;;;7.90;62.33;96835.08;107569;1241;96568;-80
2023/12/30 01:29:49;;;;;;;6.60;3.60;;;;;;;7.89;62.42;96835.70;107800;1246;96980;-78
2023/12/30 01:32:16;;;;;;;8.90;4.50;;;;;;;7.87;62.37;96827.92;107788;1239;100999;-78
2023/12/30 01:35:00;;;;;;;6.60;4.30;;;;;;;7.81;62.34;96828.48;107816;1243;96553;-78
2023/12/30 01:37:44;;;;;;;7.80;4.50;;;;;;;7.72;62.23;96831.08;107765;1238;99538;-81
2023/12/30 01:40:44;;;;;;;9.30;5.80;;;;;;;7.59;62.22;96827.56;107790;1246;96641;-78
2023/12/30 01:44:03;;;;;;;22.00;9.20;;;;;;;7.43;62.21;96823.17;107712;1239;96980;-79
2023/12/30 01:46:32;;;;;;;27.70;12.10;;;;;;;7.28;62.35;96819.94;107478;1249;102284;-80
2023/12/30 01:49:29;;;;;;;31.30;13.30;;;;;;;7.15;62.30;96817.81;107667;1239;108440;-81
2023/12/30 01:52:28;;;;;;;10.90;5.20;;;;;;;7.03;62.64;96811.81;107644;1238;99852;-81
2023/12/30 01:55:11;;;;;;;6.60;4.30;;;;;;;6.89;62.78;96817.03;107685;1239;96545;-80
2023/12/30 01:57:39;;;;;;;24.10;10.00;;;;;;;6.75;62.89;96814.34;107795;1249;96961;-80
2023/12/30 02:00:46;;;;;;;9.90;5.60;;;;;;;6.65;62.97;96813.77;107797;1238;97443;-80
2023/12/30 02:03:33;;;;;;;8.90;4.90;;;;;;;6.47;63.27;96808.25;107728;1238;101240;-86
2023/12/30 02:06:02;;;;;;;6.80;4.60;;;;;;;6.40;63.48;96811.64;107522;1249;99390;-87
2023/12/30 02:08:49;;;;;;;7.80;5.40;;;;;;;6.32;63.51;96811.16;107691;1248;96577;-87
2023/12/30 02:11:45;;;;;;;36.80;15.80;;;;;;;6.24;63.73;96809.35;107821;1247;96991;-87
2023/12/30 02:15:04;;;;;;;28.30;13.20;;;;;;;6.12;63.77;96812.33;107818;1235;102103;-88
2023/12/30 02:17:39;;;;;;;23.60;11.20;;;;;;;6.03;64.08;96811.88;107252;1244;100968;-77
2023/12/30 02:20:06;;;;;;;23.20;11.50;;;;;;;5.98;64.24;96812.01;107820;1244;99879;-78
2023/12/30 02:22:33;;;;;;;24.70;11.80;;;;;;;5.94;64.38;96811.48;107787;1249;97723;-78
2023/12/30 02:25:00;;;;;;;18.00;9.20;;;;;;;5.87;64.44;96809.67;107758;1239;97023;-87
2023/12/30 02:27:55;;;;;;;18.00;9.40;;;;;;;5.77;64.60;96804.50;107769;1248;96637;-88
2023/12/30 02:30:32;;;;;;;10.70;5.40;;;;;;;5.69;64.84;96804.89;107731;1244;100310;-88
2023/12/30 02:33:19;;;;;;;8.30;4.70;;;;;;;5.63;65.01;96805.76;107757;1239;100022;-78
2023/12/30 02:35:54;;;;;;;8.90;4.90;;;;;;;5.52;65.15;96805.69;107775;1249;97473;-77
2023/12/30 02:38:21;;;;;;;6.00;4.30;;;;;;;5.47;66.07;96802.08;107838;1243;97456;-77
2023/12/30 02:40:47;;;;;;;5.00;3.70;;;;;;;5.54;66.09;96792.27;107762;1246;96576;-77
2023/12/30 02:43:27;;;;;;;6.70;3.80;;;;;;;5.66;66.27;96786.04;107671;1243;97472;-81
2023/12/30 02:45:55;;;;;;;5.10;3.70;;;;;;;5.82;67.04;96781.47;107491;1237;98895;-88
2023/12/30 02:48:31;;;;;;;3.30;2.90;;;;;;;6.01;66.90;96777.45;107799;1239;96799;-87
2023/12/30 02:51:04;;;;;;;3.90;3.10;;;;;;;6.24;67.19;96770.79;107883;1239;96986;-87
2023/12/30 02:53:40;;;;;;;5.50;3.30;;;;;;;6.48;66.91;96773.65;107750;1250;102044;-87
2023/12/30 02:56:17;;;;;;;4.40;3.00;;;;;;;6.71;66.80;96771.45;107830;1249;101416;-85
2023/12/30 02:58:45;;;;;;;5.00;3.40;;;;;;;6.91;66.12;96768.69;107785;1241;99965;-85
2023/12/30 03:01:23;;;;;;;5.20;2.80;;;;;;;7.02;65.77;96769.61;107760;1241;96589;-86
2023/12/30 03:04:19;;;;;;;4.50;3.30;;;;;;;7.16;65.45;96765.55;107783;1239;97210;-87
2023/12/30 03:06:45;;;;;;;4.70;3.00;;;;;;;7.26;65.15;96759.60;107485;1237;101504;-79
2023/12/30 03:09:12;;;;;;;4.10;3.20;;;;;;;7.30;64.81;96753.20;107430;1240;97501;-78
2023/12/30 03:11:47;;;;;;;3.70;2.90;;;;;;;7.35;64.75;96756.09;107577;1250;96548;-78
2023/12/30 03:14:24;;;;;;;4.50;2.80;;;;;;;7.41;64.57;96757.58;107528;1239;97449;-75
2023/12/30 03:17:21;;;;;;;4.00;2.80;;;;;;;7.43;64.43;96752.88;107625;1238;96969;-79
2023/12/30 03:20:20;;;;;;;3.50;2.70;;;;;;;7.41;64.25;96747.98;107690;1240;102112;-78
2023/12/30 03:22:49;;;;;;;4.20;2.80;;;;;;;7.38;64.07;96749.77;107741;1240;101207;-79
2023/12/30 03:25:48;;;;;;;3.20;2.90;;;;;;;7.35;64.13;96745.86;107649;1240;99568;-78
2023/12/30 03:28:44;;;;;;;6.30;3.00;;;;;;;7.34;64.22;96740.48;107769;1240;97378;-80
2023/12/30 03:31:54;;;;;;;3.90;3.10;;;;;;;7.33;64.22;96733.55;107503;1242;96996;-79
2023/12/30 03:34:21;;;;;;;4.00;3.20;;;;;;;7.31;64.13;96726.32;107571;1238;102118;-79
2023/12/30 03:37:17;;;;;;;4.50;2.80;;;;;;;7.31;64.14;96716.02;107621;1239;97703;-79
2023/12/30 03:40:23;;;;;;;4.30;2.70;;;;;;;7.30;64.28;96711.36;107589;1248;99859;-82
2023/12/30 03:43:09;;;;;;;3.90;2.90;;;;;;;7.28;64.18;96711.69;107781;1249;96517;-79
2023/12/30 03:45:38;;;;;;;6.90;4.40;;;;;;;7.27;64.14;96717.77;107792;1240;97494;-87
2023/12/30 03:48:23;;;;;;;5.10;3.30;;;;;;;7.27;64.16;96716.52;107885;1241;102220;-87
2023/12/30 03:51:09;;;;;;;4.20;2.70;;;;;;;7.27;64.13;96712.47;107728;1244;100232;-86
2023/12/30 03:53:36;;;;;;;5.40;3.20;;;;;;;7.23;64.20;96708.02;107785;1235;99233;-87
2023/12/30 03:56:02;;;;;;;3.70;3.00;;;;;;;7.21;64.21;96704.64;107783;1240;97504;-86
2023/12/30 03:58:29;;;;;;;5.50;3.00;;;;;;;7.19;64.20;96701.83;107811;1249;96533;-88
2023/12/30 04:01:03;;;;;;;3.40;2.60;;;;;;;7.17;64.22;96702.41;107842;1239;97781;-79
2023/12/30 04:03:49;;;;;;;5.20;3.00;;;;;;;7.14;64.13;96701.78;107712;1241;101294;-74
2023/12/30 04:06:23;;;;;;;4.90;3.10;;;;;;;7.15;64.23;96713.55;107795;1239;98798;-74
2023/12/30 04:09:29;;;;;;;4.30;2.80;;;;;;;7.14;64.21;96715.83;107791;1248;97492;-74
2023/12/30 04:11:55;;;;;;;4.30;3.80;;;;;;;7.08;64.25;96718.43;107788;1241;97463;-73
2023/12/30 04:14:30;;;;;;;4.00;3.00;;;;;;;7.04;64.24;96716.27;107791;1239;96567;-74
2023/12/30 04:17:08;;;;;;;3.90;2.90;;;;;;;7.02;64.21;96710.08;107812;1239;101163;-78
2023/12/30 04:19:37;;;;;;;5.10;3.20;;;;;;;6.97;64.21;96707.73;107803;1240;99853;-81
2023/12/30 04:22:03;;;;;;;4.40;2.80;;;;;;;6.93;64.27;96714.87;107729;1246;96586;-73
2023/12/30 04:24:30;;;;;;;4.90;2.80;;;;;;;6.88;64.43;96716.43;107839;1249;96644;-73
2023/12/30 04:27:23;;;;;;;4.00;2.80;;;;;;;6.86;64.46;96717.23;107858;1239;97150;-73
2023/12/30 04:29:49;;;;;;;4.20;3.00;;;;;;;6.86;64.53;96723.83;107779;1241;101202;-74
2023/12/30 04:32:16;;;;;;;4.50;3.00;;;;;;;6.84;64.70;96729.14;107710;1238;97485;-80
2023/12/30 04:34:51;;;;;;;4.20;3.00;;;;;;;6.82;64.99;96729.23;107856;1247;97802;-79
2023/12/30 04:37:20;;;;;;;3.00;2.60;;;;;;;6.83;64.95;96728.93;107876;1241;97374;-80
2023/12/30 04:40:05;;;;;;;4.10;2.80;;;;;;;6.82;64.88;96725.99;107766;1239;100900;-78
2023/12/30 04:42:34;;;;;;;4.80;3.10;;;;;;;6.81;64.92;96722.45;107807;1241;99911;-80
2023/12/30 04:45:01;;;;;;;3.70;3.00;;;;;;;6.82;65.08;96720.64;107746;1241;99755;-82
2023/12/30 04:47:47;;;;;;;4.50;3.10;;;;;;;6.87;65.19;96718.54;107845;1246;97110;-73
2023/12/30 04:50:42;;;;;;;5.40;3.10;;;;;;;6.92;65.11;96714.53;107789;1246;97295;-75
2023/12/30 04:53:24;;;;;;;4.10;2.90;;;;;;;6.95;64.92;96712.52;107739;1241;101149;-74
2023/12/30 04:55:51;;;;;;;3.80;3.00;;;;;;;6.97;64.81;96708.45;107859;1240;101256;-74
2023/12/30 04:58:27;;;;;;;3.50;2.90;;;;;;;7.00;64.68;96703.45;107628;1246;96592;-86
2023/12/30 05:01:00;;;;;;;4.70;2.40;;;;;;;7.01;64.60;96698.02;107789;1249;97340;-80
2023/12/30 05:03:27;;;;;;;6.50;3.20;;;;;;;7.01;64.53;96705.41;107822;1248;97079;-80
2023/12/30 05:05:55;;;;;;;3.40;2.60;;;;;;;6.98;64.48;96706.92;107805;1248;98337;-78
2023/12/30 05:08:31;;;;;;;4.10;2.90;;;;;;;6.98;64.47;96706.92;107861;1236;96662;-79
2023/12/30 05:11:16;;;;;;;3.40;2.50;;;;;;;6.97;64.26;96718.10;107845;1248;98819;-78
2023/12/30 05:13:52;;;;;;;3.40;2.60;;;;;;;6.98;64.09;96714.22;107849;1239;96584;-78
2023/12/30 05:16:19;;;;;;;4.20;2.50;;;;;;;6.99;63.95;96705.80;107778;1247;97187;-78
2023/12/30 05:19:14;;;;;;;4.40;3.00;;;;;;;7.01;63.93;96704.79;107804;1241;97466;-82
2023/12/30 05:22:11;;;;;;;3.20;2.20;;;;;;;7.02;63.75;96709.04;107829;1239;101231;-80
2023/12/30 05:24:37;;;;;;;3.60;2.70;;;;;;;7.02;63.77;96710.58;107802;1243;98499;-82
2023/12/30 05:27:04;;;;;;;4.90;2.80;;;;;;;7.01;63.64;96704.95;107784;1241;97809;-81
2023/12/30 05:29:51;;;;;;;3.30;2.40;;;;;;;7.01;63.64;96697.65;107849;1243;96561;-80
2023/12/30 05:32:20;;;;;;;3.30;2.50;;;;;;;7.02;63.65;96694.34;107791;1247;102136;-74
2023/12/30 05:34:49;;;;;;;2.90;2.60;;;;;;;7.03;63.70;96687.62;107769;1247;101251;-86
2023/12/30 05:37:37;;;;;;;3.70;3.00;;;;;;;7.04;63.66;96692.33;107732;1241;99529;-73
2023/12/30 05:40:31;;;;;;;3.20;2.90;;;;;;;7.04;63.63;96696.45;107616;1241;97777;-88
2023/12/30 05:43:06;;;;;;;4.80;3.20;;;;;;;7.02;63.54;96692.12;107810;1240;97099;-86
2023/12/30 05:45:35;;;;;;;6.00;2.70;;;;;;;7.01;63.60;96700.80;107853;1235;101112;-87
2023/12/30 05:48:02;;;;;;;4.30;3.00;;;;;;;7.00;63.66;96706.27;107670;1249;101209;-88
2023/12/30 05:50:57;;;;;;;4.90;3.60;;;;;;;6.99;63.67;96721.38;107790;1249;97448;-87
2023/12/30 05:53:44;;;;;;;6.60;3.50;;;;;;;7.01;63.68;96730.31;107706;1249;97816;-87
2023/12/30 05:56:51;;;;;;;5.20;2.80;;;;;;;7.00;63.63;96741.63;107704;1250;97080;-74
2023/12/30 05:59:50;;;;;;;3.30;2.40;;;;;;;7.01;63.69;96748.02;107803;1238;100593;-80
2023/12/30 06:02:50;;;;;;;4.40;2.80;;;;;;;7.02;63.68;96746.53;107754;1241;101236;-74
2023/12/30 06:05:17;;;;;;;4.50;3.10;;;;;;;7.02;63.68;96746.36;107799;1247;99913;-75
2023/12/30 06:08:22;;;;;;;4.60;3.30;;;;;;;7.02;63.71;96746.40;107843;1248;96712;-74
2023/12/30 06:11:18;;;;;;;3.70;2.60;;;;;;;7.01;63.75;96749.01;107804;1247;97080;-74
2023/12/30 06:13:47;;;;;;;6.60;3.10;;;;;;;7.05;63.87;96748.52;107696;1244;101203;-85
2023/12/30 06:16:43;;;;;;;5.40;3.20;;;;;;;7.08;63.86;96753.16;107839;1238;101090;-78
2023/12/30 06:19:17;;;;;;;4.30;2.40;;;;;;;7.08;63.81;96756.17;107786;1243;99005;-78
2023/12/30 06:22:03;;;;;;;3.60;2.70;;;;;;;7.09;63.83;96762.95;107832;1241;97577;-78
2023/12/30 06:24:41;;;;;;;3.50;2.50;;;;;;;7.10;63.85;96767.45;107876;1249;96990;-80
2023/12/30 06:27:13;;;;;;;4.20;3.10;;;;;;;7.12;63.88;96768.42;107829;1248;102096;-80
2023/12/30 06:29:39;;;;;;;3.80;2.50;;;;;;;7.14;63.86;96765.41;107865;1245;101600;-79
2023/12/30 06:32:17;;;;;;;3.00;2.40;;;;;;;7.15;63.97;96762.35;107695;1250;97496;-81
2023/12/30 06:34:44;;;;;;;7.20;2.90;;;;;;;7.20;63.96;96766.55;107768;1239;97092;-76
2023/12/30 06:37:10;;;;;;;4.40;3.00;;;;;;;7.25;64.02;96766.77;107862;1250;97793;-75
2023/12/30 06:40:10;;;;;;;4.40;3.20;;;;;;;7.27;63.91;96761.82;107844;1243;96547;-77
2023/12/30 06:42:39;;;;;;;5.10;3.30;;;;;;;7.27;63.91;96773.19;107665;1238;100437;-76
2023/12/30 06:45:06;;;;;;;4.90;2.90;;;;;;;7.31;63.98;96783.65;107796;1248;100169;-75
2023/12/30 06:47:51;;;;;;;5.00;2.90;;;;;;;7.34;63.93;96792.41;107812;1247;97443;-76
2023/12/30 06:50:22;;;;;;;7.10;3.90;;;;;;;7.35;63.87;96797.36;107801;1240;97077;-76
2023/12/30 06:52:49;;;;;;;9.70;6.40;;;;;;;7.37;63.82;96794.09;107752;1250;102066;-80
2023/12/30 06:55:54;;;;;;;13.10;7.70;;;;;;;7.39;63.79;96791.16;107844;1245;96589;-81
2023/12/30 06:59:01;;;;;;;9.30;5.40;;;;;;;7.42;63.82;96800.42;107743;1250;98928;-81
2023/12/30 07:02:04;;;;;;;5.80;3.50;;;;;;;7.45;63.82;96805.67;107716;1249;96573;-80
2023/12/30 07:04:53;;;;;;;5.30;3.00;;;;;;;7.47;63.62;96808.48;107843;1241;96742;-79
2023/12/30 07:07:59;;;;;;;7.00;2.60;;;;;;;7.50;63.69;96814.17;107813;1250;102302;-79
2023/12/30 07:11:06;;;;;;;2.80;2.40;;;;;;;7.54;63.71;96813.64;107825;1239;100635;-79
2023/12/30 07:13:56;;;;;;;4.80;3.40;;;;;;;7.58;63.68;96822.16;107802;1238;99408;-76
2023/12/30 07:16:25;;;;;;;4.30;3.00;;;;;;;7.62;63.66;96817.69;108018;1238;97382;-75
2023/12/30 07:18:57;;;;;;;6.70;3.80;;;;;;;7.67;63.65;96817.52;107762;1238;97354;-76
2023/12/30 07:21:30;;;;;;;4.60;3.40;;;;;;;7.72;63.68;96814.64;107752;1241;100774;-75
2023/12/30 07:24:22;;;;;;;5.80;3.60;;;;;;;7.76;63.63;96810.82;107801;1239;101204;-77
2023/12/30 07:27:17;;;;;;;7.20;4.00;;;;;;;7.80;63.63;96821.03;107772;1238;98938;-76
2023/12/30 07:30:24;;;;;;;5.00;3.70;;;;;;;7.87;63.37;96822.50;107755;1240;97125;-75
2023/12/30 07:33:20;;;;;;;4.30;3.10;;;;;;;7.96;63.23;96831.02;107644;1244;97006;-78
2023/12/30 07:36:27;;;;;;;5.10;3.30;;;;;;;8.02;63.11;96831.42;107832;1247;102261;-81
2023/12/30 07:39:24;;;;;;;4.30;3.20;;;;;;;8.08;63.08;96836.76;107871;1247;101603;-80
2023/12/30 07:42:16;;;;;;;4.80;3.90;;;;;;;8.14;62.91;96837.85;107102;1250;99712;-80
2023/12/30 07:45:24;;;;;;;4.40;3.30;;;;;;;8.19;62.94;96841.30;107854;1239;96773;-79
2023/12/30 07:48:23;;;;;;;3.30;2.90;;;;;;;8.21;62.72;96836.30;107465;1238;97068;-78
2023/12/30 07:51:19;;;;;;;5.00;3.60;;;;;;;8.24;62.78;96838.45;107654;1238;102051;-76
2023/12/30 07:54:18;;;;;;;5.00;3.40;;;;;;;8.27;62.90;96846.02;107831;1241;100207;-80
2023/12/30 07:57:18;;;;;;;5.30;3.70;;;;;;;8.31;62.96;96849.67;107941;1249;99917;-77
2023/12/30 08:00:08;;;;;;;5.10;3.50;;;;;;;8.33;62.79;96842.00;107845;1249;96549;-80
2023/12/30 08:02:35;;;;;;;7.00;3.60;;;;;;;8.34;62.61;96842.92;107916;1241;97007;-79
2023/12/30 08:05:10;;;;;;;7.70;4.80;;;;;;;8.35;62.68;96842.27;107831;1247;96763;-79
2023/12/30 08:08:15;;;;;;;4.80;4.00;;;;;;;8.36;62.62;96848.88;107857;1241;101233;-81
2023/12/30 08:10:54;;;;;;;8.50;5.40;;;;;;;8.38;62.68;96857.31;107768;1238;100019;-77
2023/12/30 08:13:41;;;;;;;6.90;4.00;;;;;;;8.40;62.58;96863.40;107800;1250;97108;-75
2023/12/30 08:16:33;;;;;;;6.40;4.80;;;;;;;8.41;62.57;96867.87;107783;1239;97102;-78
2023/12/30 08:19:08;;;;;;;4.30;3.50;;;;;;;8.43;62.56;96861.48;107757;1238;102272;-77
2023/12/30 08:22:15;;;;;;;6.10;3.90;;;;;;;8.44;62.54;96861.48;107866;1241;99971;-79
2023/12/30 08:25:21;;;;;;;7.30;4.10;;;;;;;8.45;62.54;96866.07;107772;1249;99810;-77
2023/12/30 08:28:02;;;;;;;4.60;3.90;;;;;;;8.47;62.73;96863.87;107813;1238;96543;-77
2023/12/30 08:30:31;;;;;;;4.50;3.90;;;;;;;8.49;62.75;96871.35;107595;1246;96974;-79
2023/12/30 08:33:14;;;;;;;5.40;3.50;;;;;;;8.51;62.63;96867.80;107576;1241;102212;-78
2023/12/30 08:35:40;;;;;;;6.30;4.10;;;;;;;8.52;62.77;96867.38;107809;1238;101250;-75
2023/12/30 08:38:31;;;;;;;6.90;4.10;;;;;;;8.54;62.76;96866.88;107807;1249;96539;-76
2023/12/30 08:40:58;;;;;;;8.00;5.40;;;;;;;8.56;62.57;96869.11;107814;1238;96597;-75
2023/12/30 08:43:43;;;;;;;5.90;4.40;;;;;;;8.61;62.71;96883.20;107782;1239;97589;-75
2023/12/30 08:46:10;;;;;;;8.60;5.20;;;;;;;8.67;62.75;96888.70;107836;1243;102550;-81
2023/12/30 08:48:37;;;;;;;7.50;4.70;;;;;;;8.70;62.82;96894.64;107742;1248;96542;-82
2023/12/30 08:51:25;;;;;;;7.40;4.90;;;;;;;8.72;62.84;96894.00;107684;1243;97090;-80
2023/12/30 08:54:22;;;;;;;8.20;4.10;;;;;;;8.76;62.71;96891.35;107802;1238;96538;-81
2023/12/30 08:56:58;;;;;;;6.60;3.90;;;;;;;8.78;62.67;96893.17;107726;1238;97060;-80
2023/12/30 09:00:08;;;;;;;7.50;3.80;;;;;;;8.78;62.51;96895.33;107778;1248;101913;-79
2023/12/30 09:03:04;;;;;;;5.30;3.80;;;;;;;8.75;62.63;96894.88;107820;1249;101229;-81
2023/12/30 09:05:42;;;;;;;6.50;4.00;;;;;;;8.74;62.55;96895.41;107781;1239;99809;-79
2023/12/30 09:08:16;;;;;;;6.90;4.30;;;;;;;8.71;62.59;96891.70;107805;1239;96573;-81
2023/12/30 09:10:54;;;;;;;6.20;4.40;;;;;;;8.69;62.68;96890.35;107794;1238;97051;-81
2023/12/30 09:13:44;;;;;;;7.40;4.70;;;;;;;8.70;62.67;96895.05;107817;1238;102105;-80
2023/12/30 09:16:29;;;;;;;7.50;4.30;;;;;;;8.73;62.81;96895.70;107859;1249;101171;-80
2023/12/30 09:19:25;;;;;;;5.50;4.00;;;;;;;8.78;62.88;96897.85;107795;1249;98870;-80
2023/12/30 09:22:19;;;;;;;6.50;4.70;;;;;;;8.80;62.78;96901.33;107805;1238;96776;-80
2023/12/30 09:24:57;;;;;;;6.00;4.20;;;;;;;8.80;62.73;96898.14;107846;1248;97028;-81
2023/12/30 09:27:54;;;;;;;10.10;5.50;;;;;;;8.81;62.68;96898.42;107759;1246;102398;-78
2023/12/30 09:30:41;;;;;;;7.10;5.00;;;;;;;8.81;62.53;96899.46;107831;1249;100228;-77
2023/12/30 09:33:28;;;;;;;5.10;3.50;;;;;;;8.81;62.41;96897.55;107836;1236;98632;-80
2023/12/30 09:36:35;;;;;;;7.40;4.30;;;;;;;8.83;62.20;96898.60;107843;1235;97118;-81
2023/12/30 09:39:30;;;;;;;6.30;4.30;;;;;;;8.84;61.97;96882.98;107836;1238;96795;-80
2023/12/30 09:42:20;;;;;;;5.90;4.10;;;;;;;8.87;61.85;96876.11;107691;1247;101101;-80
2023/12/30 09:44:54;;;;;;;7.40;4.40;;;;;;;8.90;61.92;96883.48;107673;1247;101387;-77
2023/12/30 09:47:52;;;;;;;6.50;3.70;;;;;;;8.93;61.84;96884.45;107620;1238;99839;-79
2023/12/30 09:50:22;;;;;;;7.00;4.00;;;;;;;8.95;61.84;96884.43;107712;1241;97019;-81
2023/12/30 09:53:16;;;;;;;5.60;4.10;;;;;;;8.98;61.43;96883.23;107752;1248;96996;-79
2023/12/30 09:56:22;;;;;;;6.20;4.90;;;;;;;8.99;61.29;96887.36;107788;1241;101113;-82
2023/12/30 09:58:59;;;;;;;5.50;4.50;;;;;;;9.02;61.48;96883.83;107838;1239;101443;-82
2023/12/30 10:01:46;;;;;;;7.50;4.80;;;;;;;9.12;61.59;96879.86;107774;1238;100004;-79
2023/12/30 10:04:43;;;;;;;8.30;5.10;;;;;;;9.22;61.35;96870.89;107797;1241;96542;-75
2023/12/30 10:07:42;;;;;;;7.40;4.80;;;;;;;9.28;61.00;96869.00;107730;1239;97724;-81
2023/12/30 10:11:04;;;;;;;10.00;4.20;;;;;;;9.35;60.53;96873.71;107867;1246;101602;-78
2023/12/30 10:13:59;;;;;;;5.20;3.90;;;;;;;9.41;60.38;96877.48;106794;1255;101217;-80
2023/12/30 10:17:05;;;;;;;6.80;4.10;;;;;;;9.43;60.25;96870.55;107731;1235;98949;-80
2023/12/30 10:19:41;;;;;;;5.80;4.00;;;;;;;9.41;60.05;96874.77;107764;1247;96654;-80
2023/12/30 10:22:21;;;;;;;6.90;3.80;;;;;;;9.38;59.58;96866.61;107843;1247;98212;-81
2023/12/30 10:25:01;;;;;;;7.90;5.10;;;;;;;9.36;58.89;96870.69;107863;1240;101909;-77
2023/12/30 10:28:07;;;;;;;5.80;3.90;;;;;;;9.37;59.21;96867.70;107829;1245;101215;-84
2023/12/30 10:31:11;;;;;;;4.90;3.40;;;;;;;9.36;57.56;96870.98;107802;1249;99886;-80
2023/12/30 10:34:18;;;;;;;5.00;3.30;;;;;;;9.35;57.02;96866.09;107736;1247;97936;-77
2023/12/30 10:37:09;;;;;;;6.60;3.30;;;;;;;9.35;56.32;96858.42;107266;1249;98542;-77
2023/12/30 10:40:14;;;;;;;7.90;4.70;;;;;;;9.34;56.26;96864.06;107743;1243;103477;-77
2023/12/30 10:43:12;;;;;;;6.60;3.40;;;;;;;9.33;56.81;96866.80;107766;1248;100308;-80
2023/12/30 10:46:19;;;;;;;6.20;3.80;;;;;;;9.33;55.96;96862.50;107760;1238;99261;-76
2023/12/30 10:49:14;;;;;;;7.70;3.60;;;;;;;9.35;56.49;96865.42;107755;1244;97910;-75
2023/12/30 10:51:54;;;;;;;4.10;2.90;;;;;;;9.37;55.86;96864.92;107816;1248;98318;-75
2023/12/30 10:54:54;;;;;;;5.80;3.30;;;;;;;9.40;56.38;96869.27;107828;1239;102445;-76
2023/12/30 10:58:00;;;;;;;7.60;4.70;;;;;;;9.45;56.89;96866.70;107642;1248;101052;-75
2023/12/30 11:00:53;;;;;;;4.60;3.40;;;;;;;9.49;56.11;96868.12;107760;1241;99039;-79
2023/12/30 11:03:26;;;;;;;6.20;3.70;;;;;;;9.52;56.16;96869.73;107803;1249;97933;-81
2023/12/30 11:06:51;;;;;;;5.80;3.50;;;;;;;9.55;56.07;96872.75;107892;1245;98413;-77
2023/12/30 11:09:22;;;;;;;6.90;4.20;;;;;;;9.59;55.86;96870.04;107390;1244;103108;-78
2023/12/30 11:12:22;;;;;;;10.80;5.90;;;;;;;9.64;55.58;96868.05;107774;1243;101209;-81
2023/12/30 11:15:44;;;;;;;7.80;3.20;;;;;;;9.71;55.40;96873.56;107803;1247;99849;-77
2023/12/30 11:18:53;;;;;;;9.60;4.80;;;;;;;9.89;55.49;96872.96;106949;1246;98084;-75
2023/12/30 11:22:02;;;;;;;7.70;4.70;;;;;;;10.00;55.26;96877.98;107834;1239;98359;-77
2023/12/30 11:25:08;;;;;;;8.20;3.80;;;;;;;10.10;53.30;96878.55;103514;1244;5400084;-77
2023/12/30 11:28:12;;;;;;;7.80;3.50;;;;;;;10.10;52.98;96875.77;107544;1238;99335;-77
2023/12/30 11:31:05;;;;;;;5.30;3.20;;;;;;;10.17;52.71;96872.91;107843;1239;98900;-78
2023/12/30 11:34:11;;;;;;;6.40;2.10;;;;;;;10.25;53.14;96866.29;107845;1240;97958;-80
2023/12/30 11:37:09;;;;;;;3.60;2.30;;;;;;;10.26;52.49;96871.21;107805;1238;103426;-82
2023/12/30 11:39:38;;;;;;;2.00;1.80;;;;;;;10.25;52.93;96877.95;107800;1237;100893;-75
2023/12/30 11:42:35;;;;;;;3.00;2.10;;;;;;;10.27;52.55;96874.05;107566;1242;99833;-81
2023/12/30 11:45:42;;;;;;;3.50;1.90;;;;;;;10.34;51.99;96868.02;107718;1240;97951;-80
2023/12/30 11:48:28;;;;;;;6.10;2.20;;;;;;;10.49;50.96;96868.98;107831;1241;98379;-79
2023/12/30 11:51:41;;;;;;;4.40;3.00;;;;;;;10.45;51.28;96868.86;107905;1247;102563;-80
2023/12/30 11:54:48;;;;;;;4.90;2.30;;;;;;;10.61;50.86;96862.71;106924;1242;100153;-83
2023/12/30 11:57:47;;;;;;;5.80;3.30;;;;;;;10.69;49.71;96865.33;106872;1248;99302;-81
2023/12/30 12:00:43;;;;;;;4.20;2.40;;;;;;;10.73;51.08;96869.02;106835;1243;98095;-77
2023/12/30 12:03:51;;;;;;;4.50;2.20;;;;;;;10.96;51.44;96874.63;106938;1244;98346;-79
2023/12/30 12:06:47;;;;;;;5.90;2.90;;;;;;;11.04;50.27;96874.45;106918;1247;103195;-78
2023/12/30 12:09:55;;;;;;;4.80;2.10;;;;;;;10.93;50.53;96879.27;106912;1254;101573;-75
2023/12/30 12:12:45;;;;;;;4.60;2.70;;;;;;;10.77;49.86;96875.98;106914;1248;98878;-76
2023/12/30 12:15:51;;;;;;;3.60;1.90;;;;;;;10.59;49.69;96876.16;106849;1254;98786;-77
2023/12/30 12:19:00;;;;;;;5.00;2.70;;;;;;;10.38;49.48;96881.30;106958;1254;98421;-77
2023/12/30 12:22:02;;;;;;;5.00;3.10;;;;;;;10.24;50.32;96882.44;106921;1252;103441;-80
2023/12/30 12:24:52;;;;;;;5.80;2.90;;;;;;;10.16;50.41;96885.23;106950;1247;101236;-80
2023/12/30 12:27:55;;;;;;;2.60;1.80;;;;;;;10.13;51.06;96879.52;106820;1248;100016;-79
2023/12/30 12:30:42;;;;;;;5.60;3.60;;;;;;;10.14;50.61;96879.92;106887;1249;98071;-80
2023/12/30 12:33:48;;;;;;;6.90;3.80;;;;;;;10.19;51.11;96880.82;107833;1235;98455;-82
2023/12/30 12:36:55;;;;;;;9.40;4.60;;;;;;;10.28;50.33;96884.88;107849;1238;104984;-80
2023/12/30 12:39:53;;;;;;;5.50;3.30;;;;;;;10.32;49.87;96884.77;107795;1241;99938;-76
2023/12/30 12:42:38;;;;;;;4.40;2.70;;;;;;;10.34;50.29;96885.41;107797;1237;98888;-78
2023/12/30 12:45:35;;;;;;;9.60;3.70;;;;;;;10.43;50.53;96889.67;107846;1237;97927;-75
2023/12/30 12:48:20;;;;;;;4.20;2.10;;;;;;;10.48;50.32;96882.75;107693;1241;97910;-76
2023/12/30 12:51:27;;;;;;;4.20;2.20;;;;;;;10.56;50.78;96887.19;107798;1238;103560;-76
2023/12/30 12:54:27;;;;;;;4.20;2.30;;;;;;;10.60;50.68;96887.48;107796;1236;101127;-76
2023/12/30 12:57:01;;;;;;;5.00;2.40;;;;;;;10.59;50.29;96890.36;107705;1247;99800;-75
2023/12/30 12:59:49;;;;;;;4.20;2.50;;;;;;;10.55;50.43;96885.27;107908;1238;97891;-83